Time;durP1;ratioP1;P1;durP2;ratioP2;P2;SDS_P1;SDS_P2;PMS_P1;PMS_P2;Temp;Humidity;BMP_temperature;BMP_pressure;BME280_temperature;BME280_humidity;BME280_pressure;Samples;Min_cycle;Max_cycle;Signal;HPM_P1;HPM_P2
2022/03/16 00:02:24;;;;;;;15.60;12.47;;;9.90;99.90;;;;;;6277338;22;20158;-88
2022/03/16 00:04:52;;;;;;;18.60;13.20;;;9.90;99.90;;;;;;6278036;22;20575;-87
2022/03/16 00:07:18;;;;;;;17.23;12.43;;;9.90;99.90;;;;;;6278177;22;20150;-88
2022/03/16 00:09:45;;;;;;;18.13;13.60;;;9.80;99.90;;;;;;6277598;22;20154;-88
2022/03/16 00:12:12;;;;;;;18.47;14.03;;;9.80;99.90;;;;;;6277856;22;20146;-87
2022/03/16 00:14:38;;;;;;;17.13;11.93;;;9.80;99.90;;;;;;6278772;22;20158;-89
2022/03/16 00:17:04;;;;;;;17.07;12.47;;;9.70;99.90;;;;;;6276711;22;20685;-88
2022/03/16 00:19:31;;;;;;;18.00;12.73;;;9.60;99.90;;;;;;6277129;22;20597;-88
2022/03/16 00:21:58;;;;;;;18.83;12.30;;;9.70;99.90;;;;;;6277810;22;20147;-88
2022/03/16 00:24:24;;;;;;;15.80;12.00;;;9.80;99.90;;;;;;6278065;22;20173;-88
2022/03/16 00:26:50;;;;;;;15.60;12.40;;;9.80;99.90;;;;;;6277592;22;20143;-88
2022/03/16 00:29:15;;;;;;;16.20;12.10;;;9.60;99.90;;;;;;6276280;22;20154;-88
2022/03/16 00:31:41;;;;;;;15.60;11.47;;;9.60;99.90;;;;;;6276025;22;20622;-88
2022/03/16 00:34:06;;;;;;;18.83;12.57;;;9.60;99.90;;;;;;6276279;22;20236;-88
2022/03/16 00:36:32;;;;;;;18.47;12.60;;;9.70;99.90;;;;;;6276623;22;20201;-87
2022/03/16 00:38:58;;;;;;;17.40;12.40;;;9.80;99.90;;;;;;6276644;22;20157;-89
2022/03/16 00:41:23;;;;;;;18.03;13.37;;;9.80;99.90;;;;;;6276224;22;20147;-92
2022/03/16 00:43:49;;;;;;;18.27;13.33;;;9.80;99.90;;;;;;6276275;22;20563;-92
2022/03/16 00:46:15;;;;;;;16.70;13.37;;;9.80;99.90;;;;;;6276026;22;20154;-92
2022/03/16 00:48:41;;;;;;;15.97;13.00;;;9.90;99.90;;;;;;6251260;22;20183;-91
2022/03/16 00:51:08;;;;;;;17.40;12.43;;;9.80;99.90;;;;;;6277025;22;20154;-92
2022/03/16 00:53:34;;;;;;;19.27;13.47;;;9.90;99.90;;;;;;6276841;22;20221;-92
2022/03/16 00:56:04;;;;;;;18.70;13.17;;;10.00;99.90;;;;;;6276698;22;20659;-92
2022/03/16 00:58:30;;;;;;;16.93;13.23;;;9.80;99.90;;;;;;6276752;22;20147;-92
2022/03/16 01:00:55;;;;;;;18.20;14.23;;;10.10;99.90;;;;;;6276231;22;20166;-92
2022/03/16 01:03:21;;;;;;;20.10;13.97;;;9.90;99.90;;;;;;6276545;22;20160;-92
2022/03/16 01:05:47;;;;;;;20.37;13.77;;;9.70;99.90;;;;;;6276594;22;20153;-92
2022/03/16 01:08:13;;;;;;;20.53;14.03;;;9.80;99.90;;;;;;6276561;22;20158;-92
2022/03/16 01:10:39;;;;;;;21.10;13.50;;;9.70;99.90;;;;;;6276397;22;20265;-91
2022/03/16 01:13:05;;;;;;;18.27;13.33;;;9.70;99.90;;;;;;6276340;22;20150;-92
2022/03/16 01:15:31;;;;;;;18.17;13.83;;;9.80;99.90;;;;;;6277012;22;20178;-92
2022/03/16 01:17:56;;;;;;;17.97;13.47;;;9.70;99.90;;;;;;6277071;22;20145;-91
2022/03/16 01:20:22;;;;;;;21.70;15.00;;;9.60;99.90;;;;;;6276594;22;20146;-92
2022/03/16 01:22:48;;;;;;;17.70;13.47;;;9.60;99.90;;;;;;6277037;22;20146;-91
2022/03/16 01:25:14;;;;;;;17.70;13.47;;;9.60;99.90;;;;;;6280500;22;20475;-91
2022/03/16 01:27:40;;;;;;;17.97;14.27;;;9.50;99.90;;;;;;6289639;22;20147;-90
2022/03/16 01:30:06;;;;;;;16.90;13.40;;;9.60;99.90;;;;;;6285630;22;20563;-92
2022/03/16 01:32:32;;;;;;;16.53;13.70;;;9.50;99.90;;;;;;6276349;22;20151;-92
2022/03/16 01:34:58;;;;;;;17.47;12.43;;;9.40;99.90;;;;;;6276481;22;20147;-91
2022/03/16 01:37:23;;;;;;;18.63;13.53;;;9.50;99.90;;;;;;6276282;22;20228;-92
2022/03/16 01:39:49;;;;;;;18.00;13.23;;;9.40;99.90;;;;;;6276378;22;20159;-91
2022/03/16 01:42:15;;;;;;;15.60;12.70;;;9.40;99.90;;;;;;6276179;22;20153;-92
2022/03/16 01:44:41;;;;;;;18.57;13.50;;;9.30;99.90;;;;;;6276022;22;20157;-90
2022/03/16 01:47:06;;;;;;;17.27;13.83;;;9.10;99.90;;;;;;6276356;22;20142;-93
2022/03/16 01:49:32;;;;;;;21.23;13.73;;;9.20;99.90;;;;;;6276141;22;20149;-91
2022/03/16 01:51:58;;;;;;;16.63;13.47;;;9.40;99.90;;;;;;6276335;22;20150;-92
2022/03/16 01:54:24;;;;;;;18.63;12.83;;;9.30;99.90;;;;;;6276219;22;20145;-91
2022/03/16 01:56:49;;;;;;;19.67;13.57;;;9.20;99.90;;;;;;6275454;22;20186;-91
2022/03/16 01:59:15;;;;;;;21.17;14.53;;;9.10;99.90;;;;;;6275906;22;20455;-92
2022/03/16 02:01:40;;;;;;;19.70;14.23;;;9.10;99.90;;;;;;6275860;22;20178;-93
2022/03/16 02:04:06;;;;;;;17.77;14.10;;;9.10;99.90;;;;;;6276222;22;20158;-91
2022/03/16 02:06:32;;;;;;;19.93;14.00;;;9.10;99.90;;;;;;6275474;22;20177;-91
2022/03/16 02:08:58;;;;;;;19.60;14.80;;;9.20;99.90;;;;;;6277577;22;20218;-92
2022/03/16 02:11:23;;;;;;;18.80;14.57;;;9.10;99.90;;;;;;6275033;22;20190;-92
2022/03/16 02:13:50;;;;;;;18.37;14.33;;;9.10;99.90;;;;;;6274443;22;20170;-93
2022/03/16 02:16:15;;;;;;;19.90;14.13;;;9.10;99.90;;;;;;6274734;22;20179;-93
2022/03/16 02:18:41;;;;;;;18.93;14.13;;;9.10;99.90;;;;;;6274407;22;20147;-90
2022/03/16 02:21:08;;;;;;;18.53;14.13;;;9.20;99.90;;;;;;6275403;22;20145;-93
2022/03/16 02:23:33;;;;;;;20.07;14.87;;;9.20;99.90;;;;;;6275814;22;20575;-92
2022/03/16 02:25:59;;;;;;;18.23;14.07;;;9.20;99.90;;;;;;6276138;22;20145;-92
2022/03/16 02:28:25;;;;;;;19.73;15.07;;;9.20;99.90;;;;;;6276549;22;20155;-92
2022/03/16 02:30:51;;;;;;;19.90;15.13;;;9.10;99.90;;;;;;6275992;22;20159;-92
2022/03/16 02:33:17;;;;;;;18.97;14.37;;;9.10;99.90;;;;;;6275820;22;20243;-93
2022/03/16 02:35:43;;;;;;;21.00;14.27;;;9.10;99.90;;;;;;6275415;22;20626;-93
2022/03/16 02:38:09;;;;;;;19.87;14.47;;;9.20;99.90;;;;;;6275557;22;20154;-92
2022/03/16 02:40:35;;;;;;;17.10;13.93;;;9.00;99.90;;;;;;6275683;22;20219;-92
2022/03/16 02:43:02;;;;;;;18.47;13.97;;;8.80;99.90;;;;;;6276008;22;20149;-91
2022/03/16 02:45:28;;;;;;;17.43;13.80;;;8.80;99.90;;;;;;6275635;22;20154;-90
2022/03/16 02:47:54;;;;;;;20.20;14.07;;;8.70;99.90;;;;;;6275549;22;20635;-90
2022/03/16 02:50:20;;;;;;;17.57;14.33;;;8.90;99.90;;;;;;6275706;22;20170;-92
2022/03/16 02:52:46;;;;;;;21.07;14.37;;;9.10;99.90;;;;;;6275673;22;20146;-92
2022/03/16 02:55:13;;;;;;;19.10;14.40;;;9.10;99.90;;;;;;6275315;22;20155;-89
2022/03/16 02:57:39;;;;;;;21.10;14.37;;;9.10;99.90;;;;;;6275756;22;20244;-92
2022/03/16 03:00:07;;;;;;;20.50;13.53;;;9.00;99.90;;;;;;6275570;22;20210;-91
2022/03/16 03:02:33;;;;;;;20.33;15.20;;;9.00;99.90;;;;;;6275538;22;20153;-91
2022/03/16 03:04:59;;;;;;;21.23;14.80;;;9.10;99.90;;;;;;6276241;22;20198;-91
2022/03/16 03:07:25;;;;;;;17.40;13.67;;;9.00;99.90;;;;;;6276135;22;20530;-93
2022/03/16 03:09:50;;;;;;;19.23;14.63;;;9.10;99.90;;;;;;6275120;22;20160;-92
2022/03/16 03:12:16;;;;;;;20.17;14.77;;;9.00;99.90;;;;;;6275481;22;20142;-93
2022/03/16 03:14:41;;;;;;;19.47;13.47;;;8.90;99.90;;;;;;6275726;22;20225;-92
2022/03/16 03:17:07;;;;;;;18.20;13.53;;;8.80;99.90;;;;;;6275127;22;20185;-93
2022/03/16 03:19:33;;;;;;;18.70;13.73;;;9.00;99.90;;;;;;6275428;22;20138;-92
2022/03/16 03:21:59;;;;;;;21.97;15.17;;;9.00;99.90;;;;;;6275234;22;20481;-93
2022/03/16 03:24:26;;;;;;;22.53;13.83;;;9.00;99.90;;;;;;6275454;22;20507;-92
2022/03/16 03:26:51;;;;;;;17.10;13.20;;;8.90;99.90;;;;;;6275509;22;20179;-91
2022/03/16 03:29:17;;;;;;;18.17;13.70;;;9.00;99.90;;;;;;6275427;22;20143;-93
2022/03/16 03:31:43;;;;;;;18.00;14.13;;;9.00;99.90;;;;;;6275207;22;20503;-92
2022/03/16 03:34:10;;;;;;;18.57;14.03;;;8.90;99.90;;;;;;6275415;22;20150;-94
2022/03/16 03:36:36;;;;;;;19.47;13.90;;;8.90;99.90;;;;;;6274997;22;20190;-93
2022/03/16 03:39:02;;;;;;;17.80;13.53;;;8.90;99.90;;;;;;6275283;22;20188;-93
2022/03/16 03:41:28;;;;;;;18.60;13.57;;;9.00;99.90;;;;;;6275099;22;20147;-92
2022/03/16 03:43:54;;;;;;;19.17;14.20;;;9.00;99.90;;;;;;6276544;22;20151;-92
2022/03/16 03:46:19;;;;;;;16.23;13.47;;;9.00;99.90;;;;;;6276236;22;20152;-93
2022/03/16 03:48:45;;;;;;;22.53;14.43;;;9.30;99.90;;;;;;6275915;22;20142;-93
2022/03/16 03:51:11;;;;;;;16.97;13.73;;;9.40;99.90;;;;;;6275406;22;20146;-91
2022/03/16 03:53:36;;;;;;;17.80;12.77;;;9.40;99.90;;;;;;6275022;22;20178;-92
2022/03/16 03:56:02;;;;;;;17.37;12.47;;;9.30;99.90;;;;;;6275226;22;20268;-92
2022/03/16 03:58:28;;;;;;;17.83;12.67;;;9.20;99.90;;;;;;6275362;22;20145;-92
2022/03/16 04:00:53;;;;;;;21.87;13.17;;;9.20;99.90;;;;;;6275060;22;20169;-92
2022/03/16 04:03:19;;;;;;;20.53;12.67;;;9.20;99.90;;;;;;6275384;22;20144;-92
2022/03/16 04:05:45;;;;;;;17.40;12.93;;;9.20;99.90;;;;;;6275692;22;20149;-92
2022/03/16 04:08:11;;;;;;;17.63;13.17;;;9.30;99.90;;;;;;6274756;22;20139;-92
2022/03/16 04:10:38;;;;;;;17.70;14.10;;;9.40;99.90;;;;;;6275037;22;20213;-91
2022/03/16 04:13:05;;;;;;;16.07;12.03;;;9.40;99.90;;;;;;6275069;22;20158;-92
2022/03/16 04:15:30;;;;;;;18.10;13.20;;;9.50;99.90;;;;;;6287581;22;20185;-91
2022/03/16 04:17:56;;;;;;;16.67;12.97;;;9.60;99.90;;;;;;6287901;22;20158;-92
2022/03/16 04:20:22;;;;;;;17.93;12.57;;;9.50;99.90;;;;;;6275238;22;20238;-92
2022/03/16 04:22:47;;;;;;;18.67;12.93;;;9.60;99.90;;;;;;6276314;22;20142;-92
2022/03/16 04:25:13;;;;;;;21.37;13.83;;;9.50;99.90;;;;;;6277238;22;20138;-92
2022/03/16 04:27:39;;;;;;;17.67;13.07;;;9.60;99.90;;;;;;6276762;22;20149;-93
2022/03/16 04:30:06;;;;;;;17.77;13.07;;;9.50;99.90;;;;;;6277084;22;20162;-93
2022/03/16 04:32:32;;;;;;;18.80;13.13;;;9.60;99.90;;;;;;6276802;22;20185;-92
2022/03/16 04:34:57;;;;;;;17.60;12.57;;;9.40;99.90;;;;;;6276772;22;20154;-92
2022/03/16 04:37:23;;;;;;;17.50;12.70;;;9.50;99.90;;;;;;6276235;22;20509;-91
2022/03/16 04:39:48;;;;;;;15.37;12.73;;;9.50;99.90;;;;;;6276765;22;20139;-92
2022/03/16 04:42:14;;;;;;;17.27;12.63;;;9.60;99.90;;;;;;6276987;22;20154;-92
2022/03/16 04:44:40;;;;;;;18.20;12.80;;;9.50;99.90;;;;;;6276550;22;20146;-92
2022/03/16 04:47:05;;;;;;;17.10;12.97;;;9.60;99.90;;;;;;6277029;22;20143;-92
2022/03/16 04:49:31;;;;;;;14.80;11.63;;;9.60;99.90;;;;;;6276709;22;20139;-92
2022/03/16 04:51:57;;;;;;;17.63;13.00;;;9.60;99.90;;;;;;6276325;22;20150;-92
2022/03/16 04:54:22;;;;;;;17.57;12.87;;;9.70;99.90;;;;;;6276667;22;20594;-93
2022/03/16 04:56:48;;;;;;;17.10;12.10;;;9.70;99.90;;;;;;6276550;22;20232;-92
2022/03/16 04:59:13;;;;;;;16.63;11.70;;;9.60;99.90;;;;;;6276433;22;20204;-93
2022/03/16 05:01:39;;;;;;;17.47;11.87;;;9.50;99.90;;;;;;6276802;22;20178;-92
2022/03/16 05:04:06;;;;;;;17.83;12.50;;;9.60;99.90;;;;;;6276753;22;20148;-92
2022/03/16 05:06:31;;;;;;;15.70;11.67;;;9.70;99.90;;;;;;6276755;22;20146;-93
2022/03/16 05:08:57;;;;;;;18.23;12.67;;;9.60;99.90;;;;;;6276575;22;20177;-93
2022/03/16 05:11:22;;;;;;;16.27;11.93;;;9.60;99.90;;;;;;6276521;22;20147;-92
2022/03/16 05:13:51;;;;;;;17.20;12.87;;;9.60;99.90;;;;;;6276179;22;20143;-93
2022/03/16 05:16:17;;;;;;;18.27;11.57;;;9.70;99.90;;;;;;6276553;22;20205;-93
2022/03/16 05:18:45;;;;;;;16.30;12.60;;;9.60;99.90;;;;;;6276476;22;20155;-92
2022/03/16 05:21:11;;;;;;;14.60;11.27;;;9.60;99.90;;;;;;6276473;22;20153;-93
2022/03/16 05:23:38;;;;;;;15.57;11.70;;;9.50;99.90;;;;;;6276284;22;20138;-93
2022/03/16 05:26:04;;;;;;;15.40;12.27;;;9.40;99.90;;;;;;6276540;22;20149;-93
2022/03/16 05:28:31;;;;;;;17.80;12.23;;;9.50;99.90;;;;;;6276215;22;20135;-90
2022/03/16 05:30:57;;;;;;;15.37;11.83;;;9.60;99.90;;;;;;6276721;22;20158;-93
2022/03/16 05:33:23;;;;;;;14.07;10.87;;;9.60;99.90;;;;;;6276188;22;20476;-92
2022/03/16 05:35:49;;;;;;;16.80;12.53;;;9.70;99.90;;;;;;6275768;22;20174;-92
2022/03/16 05:38:15;;;;;;;17.17;12.10;;;9.70;99.90;;;;;;6276592;22;20158;-92
2022/03/16 05:40:42;;;;;;;16.00;12.17;;;9.70;99.90;;;;;;6276312;22;20585;-93
2022/03/16 05:43:08;;;;;;;16.40;12.30;;;9.50;99.90;;;;;;6276200;22;20142;-92
2022/03/16 05:45:34;;;;;;;16.33;12.10;;;9.40;99.90;;;;;;6276366;22;20142;-92
2022/03/16 05:48:00;;;;;;;18.43;12.77;;;9.30;99.90;;;;;;6275500;22;20142;-91
2022/03/16 05:50:28;;;;;;;15.43;12.13;;;9.20;99.90;;;;;;6275522;22;20143;-89
2022/03/16 05:52:58;;;;;;;17.43;11.77;;;9.20;99.90;;;;;;6276039;22;20579;-91
2022/03/16 05:55:25;;;;;;;19.43;12.27;;;9.20;99.90;;;;;;6276129;22;20479;-91
2022/03/16 05:57:52;;;;;;;20.20;13.17;;;9.00;99.90;;;;;;6276546;22;20139;-90
2022/03/16 06:00:22;;;;;;;15.70;11.73;;;9.20;99.90;;;;;;6276169;22;20170;-90
2022/03/16 06:02:51;;;;;;;17.90;12.60;;;9.10;99.90;;;;;;6276382;22;20181;-90
2022/03/16 06:05:19;;;;;;;17.23;12.80;;;9.20;99.90;;;;;;6276505;22;20142;-86
2022/03/16 06:07:46;;;;;;;18.57;13.13;;;9.40;99.90;;;;;;6276668;22;20143;-90
2022/03/16 06:10:17;;;;;;;17.90;12.80;;;9.20;99.90;;;;;;6276273;22;20169;-90
2022/03/16 06:13:12;;;;;;;22.43;13.17;;;9.00;99.90;;;;;;6276462;22;20154;-90
2022/03/16 06:15:41;;;;;;;20.33;13.80;;;9.20;99.90;;;;;;6250433;22;20178;-89
2022/03/16 06:18:07;;;;;;;18.40;13.00;;;9.00;99.90;;;;;;6275697;22;20185;-89
2022/03/16 06:20:34;;;;;;;21.80;13.87;;;8.80;99.90;;;;;;6278059;22;20556;-90
2022/03/16 06:22:59;;;;;;;17.17;13.20;;;8.70;99.90;;;;;;6276062;22;20169;-90
2022/03/16 06:25:26;;;;;;;18.30;13.10;;;8.80;99.90;;;;;;6276584;22;20138;-90
2022/03/16 06:27:53;;;;;;;20.40;13.83;;;8.70;99.90;;;;;;6276433;22;20157;-90
2022/03/16 06:30:20;;;;;;;19.40;13.73;;;8.70;99.90;;;;;;6276241;22;20206;-90
2022/03/16 06:32:47;;;;;;;17.67;13.83;;;8.90;99.90;;;;;;6276236;22;20228;-90
2022/03/16 06:35:15;;;;;;;17.93;13.10;;;9.00;99.90;;;;;;6276282;22;20233;-90
2022/03/16 06:37:44;;;;;;;19.00;13.43;;;8.90;99.90;;;;;;6276162;22;20181;-90
2022/03/16 06:40:11;;;;;;;21.83;14.27;;;8.90;99.90;;;;;;6276531;22;20184;-90
2022/03/16 06:42:55;;;;;;;19.57;13.60;;;8.90;99.90;;;;;;6276022;22;20151;-89
2022/03/16 06:46:02;;;;;;;19.30;13.87;;;9.00;99.90;;;;;;6276231;22;20204;-93
2022/03/16 06:49:04;;;;;;;21.23;13.90;;;9.10;99.90;;;;;;6276763;22;20243;-93
2022/03/16 07:07:06;;;;;;;;;;;;;;;;;;;;;
2022/03/16 07:09:33;;;;;;;;;;;;;;;;;;;;;
2022/03/16 08:38:30;;;;;;;16.57;12.20;;;11.40;99.90;;;;;;6274382;22;20213;-92
2022/03/16 08:41:22;;;;;;;16.30;12.40;;;11.20;99.90;;;;;;6274670;22;20173;-93
2022/03/16 08:43:55;;;;;;;20.23;12.23;;;11.10;99.90;;;;;;6275637;22;20210;-93
2022/03/16 08:46:50;;;;;;;20.97;12.77;;;11.30;99.90;;;;;;6276645;22;20226;-93
2022/03/16 08:49:21;;;;;;;18.23;11.50;;;11.60;99.90;;;;;;6274492;22;20154;-93
2022/03/16 08:54:36;;;;;;;17.77;12.50;;;11.90;99.90;;;;;;6279900;22;20472;-92
2022/03/16 08:57:29;;;;;;;16.20;12.27;;;12.00;99.90;;;;;;6276795;22;20175;-92
2022/03/16 09:00:14;;;;;;;17.67;12.10;;;12.10;99.90;;;;;;6275822;22;20155;-92
2022/03/16 09:03:16;;;;;;;17.77;11.83;;;12.00;99.90;;;;;;6274510;22;20163;-92
2022/03/16 09:05:52;;;;;;;;;;;;;;;;;;;;;
2022/03/16 09:09:11;;;;;;;18.37;12.87;;;12.20;99.90;;;;;;6277508;22;20227;-92
2022/03/16 09:15:29;;;;;;;18.13;11.93;;;12.80;99.90;;;;;;6229751;22;20587;-94
2022/03/16 09:18:09;;;;;;;18.27;11.20;;;12.80;99.90;;;;;;6275936;22;20246;-93
2022/03/16 09:21:11;;;;;;;19.67;12.07;;;12.80;99.90;;;;;;6275592;22;20156;-92
2022/03/16 09:23:47;;;;;;;17.27;11.63;;;13.00;99.90;;;;;;6275807;22;20163;-92
2022/03/16 09:26:44;;;;;;;16.10;11.30;;;12.80;99.90;;;;;;6276117;22;20160;-93
2022/03/16 09:32:39;;;;;;;15.17;10.77;;;13.00;99.90;;;;;;6277657;22;20158;-93
2022/03/16 09:35:39;;;;;;;15.90;11.67;;;13.20;99.90;;;;;;6277321;22;20219;-93
2022/03/16 09:44:10;;;;;;;17.70;11.60;;;13.80;99.90;;;;;;6172689;23;20154;-87
2022/03/16 09:46:37;;;;;;;18.63;12.07;;;13.70;99.90;;;;;;6159011;23;20290;-87
2022/03/16 09:49:04;;;;;;;16.60;11.60;;;13.60;99.90;;;;;;6190894;23;20161;-86
2022/03/16 09:51:35;;;;;;;19.13;11.67;;;13.40;99.90;;;;;;6245270;23;20152;-87
2022/03/16 09:54:02;;;;;;;18.20;12.00;;;13.20;99.90;;;;;;6245358;23;20171;-87
2022/03/16 09:56:27;;;;;;;19.80;12.07;;;13.10;99.90;;;;;;6245113;23;20212;-87
2022/03/16 09:58:53;;;;;;;17.80;11.27;;;13.10;99.90;;;;;;6245331;23;20147;-87
2022/03/16 10:01:19;;;;;;;19.30;12.53;;;13.30;99.90;;;;;;6244798;23;20231;-87
2022/03/16 10:03:48;;;;;;;20.70;11.97;;;13.30;99.90;;;;;;6245343;23;20175;-86
2022/03/16 10:06:17;;;;;;;17.80;11.27;;;13.40;99.90;;;;;;6245018;23;20150;-86
2022/03/16 10:13:13;;;;;;;15.07;10.47;;;13.50;99.90;;;;;;6245292;23;20252;-87
2022/03/16 10:14:16;;;;;;;18.43;11.50;;;13.90;99.90;;;;;;6246953;23;20172;-86
2022/03/16 10:19:49;;;;;;;17.50;11.90;;;14.30;99.90;;;;;;6246449;23;20170;-87
2022/03/16 10:22:28;;;;;;;17.70;11.63;;;14.50;99.90;;;;;;6245116;23;20166;-87
2022/03/16 10:25:02;;;;;;;17.00;11.13;;;14.90;99.90;;;;;;6244835;23;20155;-87
2022/03/16 10:27:28;;;;;;;17.10;10.43;;;15.00;99.90;;;;;;6245285;23;20185;-87
2022/03/16 10:29:54;;;;;;;18.20;11.67;;;15.00;99.90;;;;;;6245141;23;20143;-86
2022/03/16 10:32:24;;;;;;;19.47;11.40;;;15.20;99.90;;;;;;6244986;23;20139;-86
2022/03/16 10:34:51;;;;;;;20.43;10.73;;;15.20;99.90;;;;;;6244837;23;20547;-87
2022/03/16 10:37:20;;;;;;;21.03;11.90;;;15.30;99.90;;;;;;6244563;22;20194;-87
2022/03/16 10:39:48;;;;;;;16.70;10.90;;;15.50;99.90;;;;;;6244665;23;20182;-86
2022/03/16 10:48:19;;;;;;;17.73;10.40;;;15.80;99.80;;;;;;6246161;23;20145;-86
2022/03/16 10:50:46;;;;;;;17.10;10.73;;;15.80;99.70;;;;;;6244920;23;20174;-87
2022/03/16 10:53:16;;;;;;;14.33;10.77;;;15.80;99.80;;;;;;6244491;23;20159;-87
2022/03/16 10:55:44;;;;;;;15.87;10.50;;;15.80;99.70;;;;;;6244726;23;20623;-86
2022/03/16 10:58:13;;;;;;;16.03;11.80;;;15.70;99.70;;;;;;6244881;23;20151;-87
2022/03/16 11:00:41;;;;;;;18.97;10.80;;;15.60;99.90;;;;;;6244469;23;20154;-87
2022/03/16 11:03:15;;;;;;;16.73;10.57;;;15.60;99.90;;;;;;6244600;23;20147;-87
2022/03/16 11:05:41;;;;;;;18.53;11.20;;;15.50;99.90;;;;;;6244874;23;20174;-87
2022/03/16 11:08:09;;;;;;;20.40;11.27;;;15.50;99.90;;;;;;6244852;23;20539;-87
2022/03/16 11:10:37;;;;;;;16.37;10.93;;;15.50;99.90;;;;;;6244917;23;20143;-86
2022/03/16 11:15:52;;;;;;;16.53;10.67;;;15.50;99.90;;;;;;6246111;23;20214;-87
2022/03/16 11:18:23;;;;;;;17.83;10.77;;;15.50;99.90;;;;;;6244659;23;20150;-88
2022/03/16 11:20:52;;;;;;;15.97;10.60;;;15.60;99.90;;;;;;6244649;23;20146;-87
2022/03/16 11:26:30;;;;;;;17.57;10.60;;;15.60;99.90;;;;;;6245989;23;20146;-86
2022/03/16 11:29:17;;;;;;;18.13;11.30;;;15.50;99.90;;;;;;6244561;23;20182;-87
2022/03/16 11:31:44;;;;;;;17.37;11.03;;;15.70;99.90;;;;;;6246268;23;20151;-86
2022/03/16 11:34:11;;;;;;;19.17;10.93;;;15.90;99.90;;;;;;6246724;23;20571;-87
2022/03/16 11:36:41;;;;;;;16.30;11.47;;;15.80;99.90;;;;;;6246029;22;20210;-87
2022/03/16 11:39:15;;;;;;;17.57;10.73;;;15.60;99.90;;;;;;6246866;23;20139;-86
2022/03/16 11:41:49;;;;;;;15.77;10.17;;;15.60;99.90;;;;;;6246920;23;20143;-87
2022/03/16 11:44:25;;;;;;;17.60;10.43;;;15.90;99.90;;;;;;6246617;23;20462;-87
2022/03/16 11:46:52;;;;;;;16.93;10.57;;;16.00;99.90;;;;;;6246646;23;20663;-86
2022/03/16 11:49:28;;;;;;;18.07;10.90;;;16.10;99.90;;;;;;6246674;23;20150;-86
2022/03/16 11:52:00;;;;;;;15.77;10.27;;;16.10;99.90;;;;;;6245992;23;20142;-87
2022/03/16 11:54:45;;;;;;;16.00;10.50;;;16.00;99.90;;;;;;6246508;23;20159;-87
2022/03/16 11:57:12;;;;;;;15.33;10.17;;;15.90;99.90;;;;;;6246658;23;20265;-87
2022/03/16 11:59:44;;;;;;;18.37;9.97;;;16.00;99.90;;;;;;6246575;23;20570;-86
2022/03/16 12:02:21;;;;;;;14.50;9.63;;;16.00;99.90;;;;;;6246274;23;20147;-87
2022/03/16 12:04:47;;;;;;;20.20;10.53;;;16.20;99.90;;;;;;6246400;23;20523;-87
2022/03/16 12:07:21;;;;;;;19.23;10.30;;;16.10;99.90;;;;;;6245948;23;20172;-86
2022/03/16 12:09:47;;;;;;;18.77;10.07;;;16.30;99.90;;;;;;6246527;23;20226;-87
2022/03/16 12:15:15;;;;;;;15.07;10.27;;;16.40;99.90;;;;;;6247183;23;20620;-87
2022/03/16 12:17:55;;;;;;;16.93;9.60;;;16.50;99.90;;;;;;6246196;23;20270;-87
2022/03/16 12:20:25;;;;;;;14.57;9.47;;;16.60;99.70;;;;;;6246079;23;20152;-87
2022/03/16 12:22:54;;;;;;;13.23;9.73;;;16.70;99.50;;;;;;6245957;23;20143;-87
2022/03/16 12:25:25;;;;;;;17.13;10.70;;;16.80;99.40;;;;;;6246369;23;20148;-87
2022/03/16 12:31:00;;;;;;;14.83;10.33;;;16.70;99.30;;;;;;6247567;23;20156;-87
2022/03/16 12:33:31;;;;;;;12.63;8.97;;;16.80;99.60;;;;;;6245850;23;20178;-87
2022/03/16 12:36:05;;;;;;;15.83;10.03;;;16.90;99.50;;;;;;6245731;22;20176;-86
2022/03/16 12:38:37;;;;;;;19.23;10.97;;;17.10;98.80;;;;;;6245688;23;20492;-87
2022/03/16 12:43:56;;;;;;;15.87;9.67;;;17.10;98.70;;;;;;6247158;23;20156;-86
2022/03/16 12:46:36;;;;;;;14.77;10.57;;;17.20;98.60;;;;;;6246120;23;20234;-86
2022/03/16 12:49:07;;;;;;;18.17;10.43;;;17.10;98.70;;;;;;6246244;23;20153;-86
2022/03/16 12:51:43;;;;;;;16.43;9.17;;;17.10;98.80;;;;;;6245918;23;20140;-87
2022/03/16 12:54:11;;;;;;;17.07;10.20;;;17.30;98.60;;;;;;6245989;23;20156;-86
2022/03/16 12:56:45;;;;;;;15.63;10.33;;;17.50;98.00;;;;;;6245704;23;20590;-86
2022/03/16 12:59:11;;;;;;;15.00;8.53;;;17.70;97.60;;;;;;6245742;23;20144;-86
2022/03/16 13:01:38;;;;;;;16.50;9.23;;;17.80;97.40;;;;;;6245855;23;20151;-86
2022/03/16 13:04:10;;;;;;;12.10;8.43;;;17.50;97.70;;;;;;6245398;23;20170;-86
2022/03/16 13:06:35;;;;;;;13.27;9.10;;;17.60;97.50;;;;;;6246004;23;20153;-86
2022/03/16 13:09:09;;;;;;;11.00;7.83;;;17.50;97.70;;;;;;6245660;23;20144;-86
2022/03/16 13:11:35;;;;;;;13.90;8.83;;;17.60;97.60;;;;;;6245649;23;20175;-86
2022/03/16 13:14:02;;;;;;;17.20;8.70;;;17.50;98.10;;;;;;6245472;23;20602;-86
2022/03/16 13:16:42;;;;;;;13.67;9.70;;;17.40;97.80;;;;;;6245700;23;20199;-87
2022/03/16 13:19:25;;;;;;;13.40;8.40;;;17.50;97.70;;;;;;6245396;23;20147;-86
2022/03/16 13:22:02;;;;;;;14.20;9.30;;;17.40;97.80;;;;;;6245684;23;20152;-86
2022/03/16 13:24:47;;;;;;;11.93;7.87;;;17.40;97.60;;;;;;6245501;23;20162;-86
2022/03/16 13:27:17;;;;;;;13.10;9.17;;;17.40;98.00;;;;;;6245576;23;20232;-86
2022/03/16 13:29:51;;;;;;;11.10;8.40;;;17.50;97.60;;;;;;6245483;23;20145;-86
2022/03/16 13:32:32;;;;;;;13.87;9.17;;;17.60;97.50;;;;;;6245444;23;20236;-86
2022/03/16 13:35:13;;;;;;;12.17;8.63;;;17.50;97.60;;;;;;6245257;23;20606;-86
2022/03/16 13:37:51;;;;;;;11.77;8.13;;;17.50;97.60;;;;;;6245063;23;20626;-86
2022/03/16 13:40:27;;;;;;;11.97;8.43;;;17.50;97.70;;;;;;6245396;23;20217;-86
2022/03/16 13:43:11;;;;;;;12.60;9.20;;;17.60;97.60;;;;;;6245578;23;20157;-86
2022/03/16 13:45:41;;;;;;;14.83;8.90;;;17.60;97.30;;;;;;6245442;23;20219;-85
2022/03/16 13:48:17;;;;;;;13.87;9.13;;;17.50;97.80;;;;;;6245244;23;20232;-86
2022/03/16 13:51:00;;;;;;;14.60;8.73;;;17.40;97.90;;;;;;6245368;23;20568;-85
2022/03/16 13:53:28;;;;;;;14.53;7.77;;;17.40;98.20;;;;;;6245208;23;20155;-85
2022/03/16 13:55:55;;;;;;;11.23;8.33;;;17.30;98.10;;;;;;6245083;23;20264;-86
2022/03/16 13:58:25;;;;;;;11.33;8.23;;;17.20;98.10;;;;;;6245092;23;20144;-86
2022/03/16 14:00:58;;;;;;;12.07;8.77;;;17.30;98.10;;;;;;6244956;23;20192;-86
2022/03/16 14:03:26;;;;;;;17.23;8.43;;;17.40;97.90;;;;;;6244940;23;20149;-86
2022/03/16 14:05:53;;;;;;;15.97;9.17;;;17.30;98.00;;;;;;6245106;23;20158;-85
2022/03/16 14:08:20;;;;;;;16.93;8.37;;;17.40;98.10;;;;;;6245376;23;20587;-86
2022/03/16 14:10:50;;;;;;;13.73;8.03;;;17.20;98.10;;;;;;6244894;23;20157;-86
2022/03/16 14:13:16;;;;;;;14.67;8.97;;;17.30;97.90;;;;;;6245183;23;20146;-86
2022/03/16 14:15:46;;;;;;;16.07;9.23;;;17.20;98.20;;;;;;6244605;23;20148;-86
2022/03/16 14:18:14;;;;;;;14.23;9.03;;;17.30;98.40;;;;;;6244836;23;20151;-86
2022/03/16 14:20:42;;;;;;;13.50;9.43;;;17.30;98.10;;;;;;6244780;23;20654;-86
2022/03/16 14:23:09;;;;;;;15.57;10.10;;;17.30;98.30;;;;;;6245043;23;20143;-86
2022/03/16 14:25:37;;;;;;;15.10;10.23;;;17.10;98.40;;;;;;6244743;23;20158;-86
2022/03/16 14:28:05;;;;;;;15.07;10.50;;;17.10;98.50;;;;;;6245007;23;20241;-87
2022/03/16 14:30:33;;;;;;;16.97;9.57;;;17.10;98.50;;;;;;6244881;23;20550;-86
2022/03/16 14:33:01;;;;;;;17.30;9.70;;;17.00;98.60;;;;;;6244624;23;20143;-87
2022/03/16 14:35:32;;;;;;;19.07;10.00;;;16.80;98.90;;;;;;6244838;22;20234;-87
2022/03/16 14:38:00;;;;;;;17.57;9.90;;;16.70;99.20;;;;;;6244873;23;20176;-87
2022/03/16 14:40:25;;;;;;;17.63;10.40;;;16.70;99.30;;;;;;6244820;23;20154;-87
2022/03/16 14:42:56;;;;;;;17.37;10.37;;;16.70;99.20;;;;;;6244950;23;20229;-88
2022/03/16 14:45:25;;;;;;;16.10;9.70;;;16.60;99.20;;;;;;6244568;23;20237;-87
2022/03/16 14:47:51;;;;;;;14.57;9.47;;;16.70;99.10;;;;;;6244835;23;20139;-87
2022/03/16 14:50:23;;;;;;;16.00;9.73;;;16.50;99.60;;;;;;6244748;23;20595;-87
2022/03/16 14:52:50;;;;;;;16.13;10.23;;;16.50;99.60;;;;;;6244842;23;20143;-87
2022/03/16 14:55:15;;;;;;;30.20;16.43;;;16.50;99.60;;;;;;6244748;23;20155;-88
2022/03/16 14:57:41;;;;;;;28.67;16.30;;;16.60;99.50;;;;;;6244746;23;20206;-87
2022/03/16 15:00:07;;;;;;;28.53;15.70;;;16.50;99.90;;;;;;6244496;23;20146;-87
2022/03/16 15:02:36;;;;;;;20.50;12.47;;;16.50;99.90;;;;;;6244328;23;20159;-87
2022/03/16 15:05:05;;;;;;;16.37;11.00;;;16.50;99.80;;;;;;6244501;23;20564;-86
2022/03/16 15:07:31;;;;;;;22.80;13.03;;;16.40;99.80;;;;;;6244361;23;20603;-87
2022/03/16 15:09:58;;;;;;;17.80;12.17;;;16.50;99.80;;;;;;6244952;23;20147;-87
2022/03/16 15:12:24;;;;;;;19.60;12.30;;;16.50;99.60;;;;;;6244463;23;20225;-87
2022/03/16 15:14:50;;;;;;;18.83;11.47;;;16.70;99.20;;;;;;6244593;23;20169;-87